Timeline UpdatesTrip UpdatesNews PostsPvt PostsTravel TipsAdmin PostsConv PostsFollowed PostsChat RequestsBlog PostsPNR Posts

Disclaimer
Search
 
 
Sat Apr 19, 2014 09:54:36 ISTHomeTrainsΣChainsAtlasPNRForumGalleryNewsFAQTripsMembersLoginFeedback
No Recent News for this Train
Other Trains in the News **new
Latest...
.
Fri Feb 21, 2014 (02:20PM)
⇐ Return Journey: Train# 13008

13007/Udyan Abha Toofan Express

Feb 21 2014 (2:33PM)
Change Departure Station:
Change Arrival Station:
Post a Train Travel TipPost a Train Travel Tip **new
Post a Comment/Question/Picture/VideoPost a Comment/Question/Picture/Video
Inaugural Run
Wed Jan 01, 1930
Pantry/Catering
✕ NO Pantry Car
✕ NO Catering
RSA - Rake Sharing
Rake/Coach Composition
LOCO-SLR-GEN-GEN-B1-S5-S4-S3-S2-S1-GEN-GEN-SLR-HCPV-HCPV.
Loco
Loco Reversal @ Agra Cant (AGC) hwh - ndls wap4 (...
Read more...
hwh ) ndls - sgnr wdm3a ( tkd )
News    PNR    Forum    Time-Table    Availability    Fare Chart    Map    Arr/Dep History    Trips    Gallery    ΣChains    X/O    Timeline    
Travel Time: 33h 27m    79 halts    Distance: 1545 km    Avg Speed: 46 km/hr
Type: Mail/Express
Zone: ER/Eastern
Departs @ 09:35 (Avg 22m late)
Platform# 11
SMTWTFS
Kolkata Howrah Junction/HWH 
Arrives @ 19:02 +1 night (Avg 5h 8m late)
Platform# ???
SMTWTFS
Okhla/OKA 

79 halts. 293 intermediate Stations between Kolkata Howrah Junction and Okhla

Show ALL intermediate Stations  Show Old Time-Table

#CodeStation NameX/OArrivesAvgDepartsAvgHaltPFDay#KmSpeedElevZoneAddress
1HWH»Kolkata Howrah Junction (23)»  -09:35+221110.04210mERHowrah 711101, West Bengal
2BDCBandel Junction (7)X  10:32+2510:37+255m--139.67014mERdist - HOOGHLY, West Bengal
3BWNBarddhaman Junction (8)X  11:35+3011:40+305m--1106.88234mERDist - Barddhaman, West Bengal
4PANPanagarh (4)  12:15+3612:16+371m--1154.85570mERKaksa, West Bengal
5DGRDurgapur (5)X  12:33+3312:35+342m31170.47971mERDurgapur, West Bengal
6UDLAndal Junction (6)X  12:48+3812:50+382m--1187.46286mERAndal, West Bengal
7RNGRaniGanj (4)X  12:57+4012:58+421m--1194.73492mERRaniganj, West Bengal
8ASNAsansol Junction (7)X  13:30+3013:35+355m41212.840113mERDist - bardhaman, West Bengal
9STNSitarampur Junction (5)  13:48+3613:50+372m--1221.657139mERG T Rd Before Asansol, West Bengal
10CRJChittaranjan (3)X  14:07+3814:08+391m31237.966182mERMihijam, Jharkhand
11JMTJamtara (2)X  14:21+3814:22+401m11252.263201mERJamtara, Jharkhand
12VDSVidyasagar (2)  14:39+4214:40+431m--1270.166250mERJamtara, Jharkhand
13MDPMadhupur Junction (4)  15:02+4415:12+4210m21294.367254mER06432-224478, Jharkhand
14JSMEJasidih Junction (5)  15:38+4615:43+455m--1323.480271mERJasidih, Jharkhand
15STLSimultala (2)X  16:02+4316:03+441m--1348.830247mERSimultala, Bihar
16JAJJhajha (4)  16:40+3716:45+395m31367.562143mECRJhajha, Bihar
17GHRGidhaur (2)X  16:56+4316:57+441m--1378.973106mECRState Highway 18, Bihar
18JMUJamui (3)X  17:09+4717:10+491m--1393.59481mECRState Highway 72, Bihar
19MNPMananpur (2)  17:23+5017:24+531m--1413.91757mECRState Highway 18, Bihar
20BSQPBansipur  17:33+5317:34+551m--1416.42653mECRKiul, Bihar
21KIULKiul Junction (5)X  17:44+5317:48+524m31420.81253mECRDist. Lakhisarai, Bihar
22LKRLuckeesarai Junction (2)X  17:55+5117:56+521m--1422.13852mECRLakhisarai, Bihar
23DMRXDumri Halt (1)  18:13+5118:14+511m11432.95149mECRNational Highway 80, Bihar
24BRYABarhiya  18:19+5018:20+511m--1437.25647mECRBarahiya, Bihar
25HTZHathidah Junction (2)X  18:30+5218:31+531m21446.65650mECRMusahari, Bihar
26MKAMokama Junction (3)X  18:40+5518:44+564m--1455.07248mECRPatna, Bihar
27MORMorX  18:50+5818:51+581m--1462.25546mECRMor, Bihar
28PHKPunarakh  19:00+5719:01+581m--1470.56251mECRPunarakh, Bihar
29BARHBarh (3)X  19:11+5819:12+1:011m--1480.96949mECRBarh, Bihar
30ATLAthmal Gola (2)XO  19:20+1:0019:21+1:001m--1490.02252mECRPatna, Bihar
31BKPBakhtiyarpur Junction (5)X  19:46+4719:48+482m--1499.17951mECRPatna, Bihar
32KOOKhusropur (2)  19:59+5020:00+591m--1513.75652mECRPatna, Bihar
33FUTFatwa (6)X  20:09+1:0120:10+1:041m--1522.17353mECRPatna, Bihar
34PNCPatna Saheb (3)X  20:20+1:0820:21+1:111m--1534.32659mECRPatna, Bihar
35GZHGulzarbagh (3)X  20:28+1:1020:29+1:151m--1537.42055mECRPatna, Bihar
36PNBEPatna Junction (10)X  20:50+1:1021:00+1:1610m--1544.23857mECRPatna 800001, Bihar
37DNRDanapur (5)XO  21:15+1:2321:25+1:2410m--1553.65658mECRKhagaul, Bihar
38SDESadisopur (2)  21:39+1:3221:40+1:331m--1566.75164mECRSadisopur, Bihar
39BTABihta (2)X  21:45+1:3221:46+1:351m--1571.03962mECRBihta, Bihar
40KUAKulharia (2)  22:05+1:3122:06+1:331m--1583.35461mECRChandi Sahar Rd, Bihar
41ARAAra Junction (3)  22:17+1:3322:22+1:345m--1593.29263mECRarrah( 06182-233411), Bihar
42BEABihiya  22:36+1:3822:37+1:401m--1614.65167mECRBehea, Bihar
43BYNBanahi  22:44+1:3922:45+1:401m--1620.55967mECRBanahi, Bihar
44RPRRaghunathpur  22:54+1:3822:55+1:431m--1629.47469mECRRaghunathpur, Bihar
45DUREDumraon (3)  23:08+1:4523:09+1:471m--1645.36170mECRDumraon, Bihar
46BXRBuxar (3)X  23:25+1:4823:30+1:515m--1661.78067mECRBuxar, Bihar
47DLNDildarnagar Junction (2)  23:57+1:5223:59+1:532m--1697.95872mECRDildarnagar, Uttar Pradesh
48ZNAZamaniaXO  00:13+1:4900:14+1:511m--2711.32077mECRGhazipur, Uttar Pradesh
49MGSMughal Sarai Junction (8)XO  02:25+4602:40+4915m--2755.65583mECRMughalsarai 232101, Uttar Pradesh
50CARChunar Junction (5)X  03:15+1:1203:16+1:171m22787.56185mNCRChunar Junction, Uttar Pradesh
51MZPMirzapur (3)O  03:47+1:3303:48+1:351m--2818.84988mNCRMirzapur, Uttar Pradesh
52BDLVindhyachal (3)  03:57+1:4303:58+1:451m--2826.17488mNCRMirzapur, Uttar Pradesh
53ALDAllahabad Junction (10)X  05:05+3:0205:15+3:0410m22908.377100mNCRAllahabad 211003, Uttar Pradesh
54BREBharwariX  05:44+3:2505:45+3:281m--2945.475108mNCRBharwari, Uttar Pradesh
55SROSirathu (2)X  06:01+3:3106:02+3:341m12965.571109mNCRSirathu, Uttar Pradesh
56KGAKhaga (3)  06:23+3:4106:24+3:451m--2990.352114mNCRFatehpur, Uttar Pradesh
57FTPFatehpur (3)  07:04+3:3807:05+3:471m--21025.058120mNCRFatehpur, Uttar Pradesh
58CNBKanpur Central (10)  08:25+4:0308:40+4:0515m221102.636128mNCRKanpur, Uttar Pradesh
59PNKPanki (3)  08:59+4:1209:00+4:131m--21114.286129mNCRKANPUR-208 020, Uttar Pradesh
60RURARura (4)  09:23+4:1509:24+4:171m--21147.071137mNCRJhinjhak, Uttar Pradesh
61JJKJhinjhak (3)  09:40+4:1809:41+4:201m321166.074140mNCRAuraiya, Uttar Pradesh
62PHDPhaphund (4)X  09:57+4:2909:58+4:311m--21185.867146mNCRdist. Auraiya, Uttar Pradesh
63ULDAchalda (3)X  10:13+4:3210:14+4:331m--21202.673147mNCRDist. Auraiya(05688-1072), Uttar Pradesh
64BNTBharthana (3)X  10:30+4:3410:31+4:371m--21222.152147mNCRBharthana, Uttar Pradesh
65ETWEtawah (5)  10:54+4:3410:55+4:401m221242.062154mNCRDistt. Etawah, Uttar Pradesh
66SKBShikohabad Junction (4)X  11:49+4:5511:50+4:521m321297.438166mNCRDistrict Firozabad, Uttar Pradesh
67FZDFirozabad (4)  12:21+4:5112:22+4:561m321317.323164mNCRFirozabad, Uttar Pradesh
68TDLTundla Junction (4)  13:05+4:4513:15+4:4410m221333.821167mNCRDistt.Firozabad, Uttar Pradesh
69AFAgra Fort (3)  14:20+4:3914:25+4:505m221356.714170mNCRRakabganj, Uttar Pradesh
70IDHIdgah Agra Junction (3)  14:34+4:5114:35+5:041m--21358.95168mNCRAgra, Uttar Pradesh
71AGCAgra Cantt. (6)XO  15:00+4:5015:20+5:1020m321361.113174mNCRAgra, Uttar Pradesh
72RKMRaja Ki Mandi (4)  15:38+5:0615:39+5:071m121365.165170mNCRAgra, Uttar Pradesh
73MTJMathura Junction (10)  16:25+5:1116:33+5:098m221414.872179mNCRMathura, Uttar Pradesh
74CHJChata (4)X  16:59+5:1017:00+5:111m--21445.951185mNCRChhata, Uttar Pradesh
75KSVKosi Kalan (3)X  17:12+5:1017:13+5:111m121456.255189mNCRKosi Kalan, Uttar Pradesh
76PWLPalwal (8)X  17:59+4:5918:00+5:041m--21498.756200mNRPalwal, Haryana
77ASTAsaoti (5)  18:12+5:0418:13+5:051m321510.059203mNRAsaoti, Haryana
78BVHBallabgarh (5)  18:23+5:0718:24+5:081m--21519.844203mNRFaridabad, Haryana
79FDBFaridabad (4)  18:35+5:0718:36+5:081m221527.948206mNRFaridabad, Haryana
80TKDTuglakabad (4)X  18:50+5:0818:51+5:021m--21539.033213mNRNear Tughlakabad Metro Station, Delhi NCT
81OKA•Okhla (4)•X  19:02+5:0819:03+5:021m--21545.018221mNRIshwar Nagar Mathura Road, Delhi NCT
82NZMDelhi Hazrat Nizamuddin (7)X  19:15+5:0519:17+5:052m321548.748209mNRNizamuddin East/Sarai KaleKhan Bus Terminal, Delhi NCT
83TKJTilak Bridge (4)X  19:23+5:0219:24+5:021m--21553.59214mNRNew Delhi, Delhi NCT
84NDLSNew Delhi (16)X  19:40+4:5720:10+4:5830m221555.914215mNRAjmeri Gate/Paharganj, Delhi NCT
85DKZDelhi KishanGanj (2)  20:27+5:0220:28+5:031m--21559.832220mNRSarai Rohilla, Delhi NCT
86SSBShakur BastiX  20:41+5:0420:42+5:051m--21566.850216mNRPitampura, Delhi NCT
87BGZBahadurgarh  21:06+5:0621:07+5:071m--21586.772220mNRBahadurgarh, Haryana
88SPZSamplaX  21:22+5:0821:23+5:091m--21604.650222mNRSampla, Haryana
89ROKRohtak Junction (3)  21:50+5:0421:55+5:025m--21627.067220mNRRohtak, Haryana
90JNAJulana  22:23+5:0022:24+5:011m--21658.450226mNRJulana, Haryana
91JINDJind Junction (3)  22:55+4:5423:00+4:545m--21684.170222mNR126102., Haryana
92UCAUchana  23:16+4:5523:17+4:561m--21702.865225mNRDistrict Jind, Haryana
93NRWNarwana Junction (4)  23:31+4:5823:32+4:591m--21718.073235mNRWay to Narwana, Haryana
94TUNTohana (2)  23:53+4:5923:54+5:001m--21743.435232mNRTohana, Haryana
95JHLJakhal Junction  00:15+4:5000:25+4:4610m--31755.743225mNRJakhal, Haryana
96BLZBudhladaX  01:06+4:4301:07+4:371m--31785.348223mNRBudhlada, Punjab
97MSZMansa  01:27+4:3901:28+4:411m--31801.449222mNRMansa, Punjab
98MAURMaur  01:51+4:4001:52+4:411m--31820.126220mNRMaur Mandi, Punjab
99BTIBathinda Junction (6)XO  03:15+4:1104:05+3:5950m231855.673208mNRBathinda, Punjab
100GDBGiddarbaha  04:28+4:0604:29+4:141m--31883.457200mNRGiddarbaha, Punjab
101MOTMalout (1)  04:46+4:1404:47+4:171m131899.644194mNRMalaut, Punjab
102ABSAbohar  05:27+4:0805:28+4:111m--31929.135186mNRAbohar, Punjab
103SGNRShri Ganganagar  07:00+3:55-331982.2-178mNWRSri Ganganagar, Rajasthan
Scroll to Top
Scroll to Bottom